DLH982 EDDF-KIAD
Flight info
| Callsign | DLH982 |
|---|---|
| Flight time | N/A |
| Altitude | 34000 |
| Route | OBOKA3D OBOKA Z28 DIBIR DCT BUDIP DCT GISEB DCT RAVLO Y70 OTBED DCT ABLUC/N0477F360 DCT OZRAT DCT WETFI DCT REVNU DCT RESNO/M083F370 DCT 55N020W 54N030W 52N040W 50N050W DCT ELSIR/N0478F380 N402C ALLEX DCT KAYCC DCT KYLOH Q480 BAF HYPER9 |
| Aircraft | A346/H-SDE2E3FGHIJ3J4J5M1RWXY/LB1D1 |
Departure
| Time | 2026-05-07 23:18 |
|---|---|
| Airport | Frankfurt Main Airport (EDDF) |
Arrival
| Time | N/A |
|---|---|
| Airport | Washington Dulles International Airport (KIAD) |
| Time | Latitude | Longitude | Altitude | Speed | Heading |
|---|---|---|---|---|---|
| 2026-05-07 22:57 | 50.04635 | 8.55949 | 367 ft | 0 kts | 340° |
| 2026-05-07 23:08 | 50.04628 | 8.55953 | 368 ft | 4 kts | 339° |
| 2026-05-07 23:08 | 50.04602 | 8.55966 | 370 ft | 4 kts | 346° |
| 2026-05-07 23:09 | 50.04583 | 8.55978 | 368 ft | 3 kts | 319° |
| 2026-05-07 23:09 | 50.04568 | 8.56003 | 364 ft | 4 kts | 296° |
| 2026-05-07 23:09 | 50.04565 | 8.56026 | 367 ft | 4 kts | 255° |
| 2026-05-07 23:09 | 50.04576 | 8.56057 | 370 ft | 4 kts | 237° |
| 2026-05-07 23:10 | 50.04584 | 8.56082 | 371 ft | 0 kts | 247° |
| 2026-05-07 23:12 | 50.04585 | 8.56082 | 371 ft | 0 kts | 247° |
| 2026-05-07 23:12 | 50.04581 | 8.56069 | 371 ft | 4 kts | 247° |
| 2026-05-07 23:12 | 50.04556 | 8.55986 | 371 ft | 11 kts | 233° |
| 2026-05-07 23:12 | 50.04481 | 8.55939 | 370 ft | 12 kts | 198° |
| 2026-05-07 23:13 | 50.04392 | 8.55907 | 370 ft | 14 kts | 173° |
| 2026-05-07 23:13 | 50.04292 | 8.55957 | 366 ft | 16 kts | 165° |
| 2026-05-07 23:13 | 50.04211 | 8.55856 | 367 ft | 18 kts | 256° |
| 2026-05-07 23:13 | 50.04171 | 8.55655 | 364 ft | 20 kts | 251° |
| 2026-05-07 23:14 | 50.04121 | 8.55434 | 365 ft | 22 kts | 250° |
| 2026-05-07 23:14 | 50.04064 | 8.55203 | 364 ft | 23 kts | 249° |
| 2026-05-07 23:14 | 50.04005 | 8.54961 | 366 ft | 25 kts | 249° |
| 2026-05-07 23:14 | 50.03942 | 8.54700 | 360 ft | 26 kts | 249° |
| 2026-05-07 23:15 | 50.03881 | 8.54443 | 359 ft | 22 kts | 250° |
| 2026-05-07 23:15 | 50.03799 | 8.54225 | 362 ft | 24 kts | 246° |
| 2026-05-07 23:15 | 50.03740 | 8.53977 | 356 ft | 25 kts | 250° |
| 2026-05-07 23:15 | 50.03679 | 8.53715 | 358 ft | 27 kts | 249° |
| 2026-05-07 23:16 | 50.03614 | 8.53459 | 354 ft | 21 kts | 246° |
| 2026-05-07 23:16 | 50.03508 | 8.53356 | 355 ft | 19 kts | 207° |
| 2026-05-07 23:16 | 50.03385 | 8.53276 | 351 ft | 15 kts | 166° |
| 2026-05-07 23:16 | 50.03333 | 8.53398 | 356 ft | 14 kts | 124° |
| 2026-05-07 23:17 | 50.03280 | 8.53524 | 353 ft | 13 kts | 90° |
| 2026-05-07 23:17 | 50.03312 | 8.53673 | 354 ft | 15 kts | 70° |
| 2026-05-07 23:17 | 50.03407 | 8.54069 | 358 ft | 68 kts | 69° |
| 2026-05-07 23:17 | 50.03636 | 8.55025 | 361 ft | 119 kts | 69° |
| 2026-05-07 23:18 | 50.03988 | 8.56462 | 363 ft | 163 kts | 71° |
| 2026-05-07 23:18 | 50.04398 | 8.58230 | 599 ft | 176 kts | 68° |
| 2026-05-07 23:18 | 50.04823 | 8.59919 | 1376 ft | 163 kts | 64° |
| 2026-05-07 23:18 | 50.05267 | 8.61566 | 1860 ft | 168 kts | 69° |
| 2026-05-07 23:19 | 50.05655 | 8.63348 | 2195 ft | 179 kts | 72° |
| 2026-05-07 23:19 | 50.06047 | 8.65271 | 2487 ft | 193 kts | 72° |
| 2026-05-07 23:19 | 50.06471 | 8.67337 | 2795 ft | 207 kts | 72° |
| 2026-05-07 23:19 | 50.06946 | 8.69551 | 3100 ft | 222 kts | 68° |
| 2026-05-07 23:20 | 50.07890 | 8.71486 | 3516 ft | 232 kts | 34° |
| 2026-05-07 23:20 | 50.09360 | 8.72636 | 3962 ft | 244 kts | 23° |
| 2026-05-07 23:20 | 50.10981 | 8.73701 | 4336 ft | 259 kts | 22° |
| 2026-05-07 23:20 | 50.12644 | 8.74793 | 4958 ft | 264 kts | 22° |
| 2026-05-07 23:21 | 50.14345 | 8.75920 | 5648 ft | 267 kts | 22° |
| 2026-05-07 23:21 | 50.16064 | 8.77067 | 6334 ft | 271 kts | 22° |
| 2026-05-07 23:21 | 50.17817 | 8.78246 | 6983 ft | 276 kts | 22° |
| 2026-05-07 23:21 | 50.19591 | 8.79444 | 7661 ft | 279 kts | 22° |
| 2026-05-07 23:22 | 50.21417 | 8.80519 | 8359 ft | 282 kts | 8° |
| 2026-05-07 23:22 | 50.23350 | 8.80244 | 9023 ft | 282 kts | 334° |
| 2026-05-07 23:22 | 50.24882 | 8.78386 | 9759 ft | 281 kts | 307° |
| 2026-05-07 23:22 | 50.26056 | 8.75914 | 10441 ft | 285 kts | 305° |
| 2026-05-07 23:23 | 50.27281 | 8.73373 | 10837 ft | 300 kts | 307° |
| 2026-05-07 23:23 | 50.28586 | 8.70756 | 11143 ft | 317 kts | 307° |
| 2026-05-07 23:23 | 50.30008 | 8.67977 | 11460 ft | 334 kts | 308° |
| 2026-05-07 23:23 | 50.31515 | 8.65073 | 11761 ft | 351 kts | 308° |
| 2026-05-07 23:24 | 50.33097 | 8.62048 | 12067 ft | 367 kts | 309° |
| 2026-05-07 23:24 | 50.34742 | 8.58904 | 12562 ft | 376 kts | 308° |
| 2026-05-07 23:24 | 50.36406 | 8.55725 | 13319 ft | 378 kts | 308° |
| 2026-05-07 23:24 | 50.38083 | 8.52519 | 14091 ft | 380 kts | 308° |
| 2026-05-07 23:25 | 50.39747 | 8.49330 | 14718 ft | 384 kts | 308° |
| 2026-05-07 23:25 | 50.41447 | 8.46069 | 15336 ft | 388 kts | 308° |
| 2026-05-07 23:25 | 50.43168 | 8.42763 | 15948 ft | 392 kts | 308° |
| 2026-05-07 23:25 | 50.44902 | 8.39428 | 16551 ft | 396 kts | 308° |
| 2026-05-07 23:26 | 50.46650 | 8.36063 | 17155 ft | 399 kts | 308° |
| 2026-05-07 23:26 | 50.48422 | 8.32649 | 17744 ft | 404 kts | 308° |
| 2026-05-07 23:26 | 50.50207 | 8.29204 | 18348 ft | 408 kts | 308° |
| 2026-05-07 23:26 | 50.51980 | 8.25778 | 18859 ft | 411 kts | 308° |
| 2026-05-07 23:27 | 50.55624 | 8.18730 | 19946 ft | 417 kts | 308° |
| 2026-05-07 23:27 | 50.57460 | 8.15170 | 20478 ft | 420 kts | 308° |
| 2026-05-07 23:27 | 50.59313 | 8.11573 | 21017 ft | 423 kts | 308° |
| 2026-05-07 23:28 | 50.61170 | 8.07960 | 21548 ft | 425 kts | 308° |
| 2026-05-07 23:28 | 50.63039 | 8.04320 | 22068 ft | 428 kts | 308° |
| 2026-05-07 23:28 | 50.64895 | 8.00699 | 22564 ft | 431 kts | 308° |
| 2026-05-07 23:28 | 50.66785 | 7.97007 | 23066 ft | 434 kts | 308° |
| 2026-05-07 23:29 | 50.68695 | 7.93270 | 23581 ft | 437 kts | 308° |
| 2026-05-07 23:29 | 50.70606 | 7.89527 | 24030 ft | 439 kts | 308° |
| 2026-05-07 23:29 | 50.72534 | 7.85746 | 24453 ft | 442 kts | 308° |
| 2026-05-07 23:29 | 50.74467 | 7.81950 | 24878 ft | 444 kts | 308° |
| 2026-05-07 23:30 | 50.76410 | 7.78129 | 25309 ft | 446 kts | 308° |
| 2026-05-07 23:30 | 50.78340 | 7.74327 | 25713 ft | 449 kts | 308° |
| 2026-05-07 23:30 | 50.80304 | 7.70451 | 26120 ft | 451 kts | 308° |
| 2026-05-07 23:30 | 50.82274 | 7.66558 | 26537 ft | 453 kts | 308° |
| 2026-05-07 23:31 | 50.84255 | 7.62637 | 26932 ft | 456 kts | 307° |
| 2026-05-07 23:31 | 50.90259 | 7.50720 | 28111 ft | 458 kts | 307° |
| 2026-05-07 23:31 | 51.00238 | 7.30778 | 30694 ft | 457 kts | 307° |
| 2026-05-07 23:31 | 51.09182 | 7.12744 | 32700 ft | 453 kts | 306° |
| 2026-05-07 23:32 | 51.18321 | 6.94203 | 34129 ft | 459 kts | 306° |
| 2026-05-07 23:32 | 51.27525 | 6.75410 | 34112 ft | 460 kts | 306° |
| 2026-05-07 23:32 | 51.46207 | 6.36846 | 34115 ft | 461 kts | 306° |
| 2026-05-07 23:33 | 51.64921 | 5.97632 | 34112 ft | 461 kts | 305° |
| 2026-05-07 23:33 | 51.84137 | 5.56733 | 34109 ft | 462 kts | 305° |
| 2026-05-07 23:34 | 52.03714 | 5.14385 | 34114 ft | 463 kts | 304° |
| 2026-05-07 23:34 | 52.22784 | 4.72465 | 34114 ft | 463 kts | 304° |
| 2026-05-07 23:35 | 52.42765 | 4.27778 | 34119 ft | 463 kts | 303° |
| 2026-05-07 23:35 | 52.62885 | 3.81977 | 34141 ft | 465 kts | 303° |
| 2026-05-07 23:36 | 52.82862 | 3.35650 | 34127 ft | 467 kts | 303° |
| 2026-05-07 23:36 | 52.91648 | 3.10504 | 34122 ft | 463 kts | 289° |
| 2026-05-07 23:36 | 52.95952 | 2.82690 | 34128 ft | 459 kts | 280° |
| 2026-05-07 23:37 | 53.03037 | 2.27212 | 34130 ft | 463 kts | 280° |
| 2026-05-07 23:37 | 53.09979 | 1.70720 | 34126 ft | 460 kts | 280° |
| 2026-05-07 23:38 | 53.16781 | 1.12781 | 34121 ft | 457 kts | 279° |
| 2026-05-07 23:38 | 53.23233 | 0.55220 | 34103 ft | 455 kts | 279° |
| 2026-05-07 23:39 | 53.29524 | -0.02250 | 34101 ft | 457 kts | 281° |
| 2026-05-07 23:39 | 53.36401 | -0.54925 | 34085 ft | 456 kts | 281° |
| 2026-05-07 23:40 | 53.43392 | -1.10785 | 34072 ft | 458 kts | 280° |
| 2026-05-07 23:40 | 53.49845 | -1.64480 | 34061 ft | 458 kts | 279° |
| 2026-05-07 23:41 | 53.55997 | -2.17828 | 34058 ft | 459 kts | 278° |
| 2026-05-07 23:41 | 53.62087 | -2.72975 | 34047 ft | 460 kts | 277° |
| 2026-05-07 23:42 | 53.67984 | -3.28877 | 34047 ft | 461 kts | 277° |
| 2026-05-07 23:42 | 53.73780 | -3.86562 | 34038 ft | 459 kts | 276° |
| 2026-05-07 23:43 | 53.79315 | -4.44669 | 34018 ft | 459 kts | 276° |
| 2026-05-07 23:43 | 53.81667 | -5.03780 | 34011 ft | 455 kts | 271° |
| 2026-05-07 23:44 | 53.84850 | -5.62009 | 34002 ft | 457 kts | 282° |
| 2026-05-07 23:44 | 53.93635 | -6.18167 | 33994 ft | 457 kts | 281° |
| 2026-05-07 23:45 | 54.02112 | -6.74531 | 33991 ft | 455 kts | 281° |
| 2026-05-07 23:45 | 54.09801 | -7.27454 | 33987 ft | 454 kts | 280° |
| 2026-05-07 23:46 | 54.17611 | -7.83144 | 33999 ft | 453 kts | 279° |
| 2026-05-07 23:46 | 54.25344 | -8.40400 | 34002 ft | 452 kts | 278° |
| 2026-05-07 23:47 | 54.32893 | -8.98570 | 34014 ft | 451 kts | 278° |
| 2026-05-07 23:47 | 54.39022 | -9.47637 | 34027 ft | 450 kts | 277° |
| 2026-05-07 23:48 | 54.47306 | -10.16666 | 34015 ft | 450 kts | 278° |
| 2026-05-07 23:48 | 54.53799 | -10.66938 | 34052 ft | 449 kts | 278° |
| 2026-05-07 23:49 | 54.61350 | -11.28225 | 34029 ft | 449 kts | 277° |
| 2026-05-07 23:49 | 54.68834 | -11.91867 | 34045 ft | 449 kts | 277° |
| 2026-05-07 23:50 | 54.75735 | -12.53458 | 34048 ft | 448 kts | 277° |
| 2026-05-07 23:50 | 54.82343 | -13.15469 | 34054 ft | 449 kts | 276° |
| 2026-05-07 23:51 | 54.88700 | -13.78343 | 34058 ft | 453 kts | 276° |
| 2026-05-07 23:51 | 54.94838 | -14.42607 | 34067 ft | 457 kts | 276° |
| 2026-05-07 23:52 | 55.00220 | -15.08762 | 34082 ft | 457 kts | 270° |
| 2026-05-07 23:52 | 55.01332 | -15.74901 | 34096 ft | 459 kts | 270° |
| 2026-05-07 23:53 | 55.02109 | -16.41542 | 34102 ft | 461 kts | 269° |
| 2026-05-07 23:53 | 55.02519 | -17.07760 | 34123 ft | 463 kts | 269° |
| 2026-05-07 23:54 | 55.02565 | -17.75104 | 34126 ft | 464 kts | 269° |
| 2026-05-07 23:54 | 55.02237 | -18.42912 | 34136 ft | 466 kts | 269° |
| 2026-05-07 23:55 | 55.01538 | -19.10285 | 34150 ft | 469 kts | 269° |
| 2026-05-07 23:55 | 55.00441 | -19.78723 | 34162 ft | 470 kts | 269° |
| 2026-05-07 23:56 | 54.97315 | -20.46174 | 34184 ft | 472 kts | 265° |
| 2026-05-07 23:56 | 54.93095 | -21.13613 | 34524 ft | 472 kts | 270° |
| 2026-05-07 23:57 | 54.93719 | -21.45188 | 35298 ft | 471 kts | 280° |
| 2026-05-07 23:57 | 54.97399 | -21.77658 | 36462 ft | 469 kts | 289° |
| 2026-05-07 23:57 | 55.04086 | -22.09142 | 38034 ft | 465 kts | 298° |
| 2026-05-07 23:57 | 55.13349 | -22.38238 | 39548 ft | 454 kts | 306° |
| 2026-05-07 23:58 | 55.24505 | -22.63901 | 40826 ft | 438 kts | 314° |
| 2026-05-07 23:58 | 55.36914 | -22.85695 | 42001 ft | 419 kts | 321° |
| 2026-05-07 23:58 | 55.50108 | -23.03668 | 42839 ft | 402 kts | 327° |
| 2026-05-07 23:58 | 55.64260 | -23.18489 | 43257 ft | 389 kts | 334° |
| 2026-05-07 23:59 | 55.79315 | -23.30139 | 42873 ft | 397 kts | 341° |
| 2026-05-07 23:59 | 55.95059 | -23.38423 | 42858 ft | 398 kts | 347° |
| 2026-05-07 23:59 | 56.07031 | -23.42313 | 42973 ft | 394 kts | 352° |
| 2026-05-07 23:59 | 56.09759 | -23.42920 | 43003 ft | 394 kts | 353° |
| 2026-05-08 00:00 | 56.12485 | -23.43578 | 42702 ft | 401 kts | 346° |
| 2026-05-08 00:00 | 56.15175 | -23.45280 | 41760 ft | 423 kts | 330° |
| 2026-05-08 00:00 | 56.17537 | -23.48654 | 40774 ft | 449 kts | 313° |
| 2026-05-08 00:00 | 56.19304 | -23.53486 | 39860 ft | 477 kts | 297° |
| 2026-05-08 00:01 | 56.20398 | -23.59163 | 39194 ft | 490 kts | 287° |
| 2026-05-08 00:01 | 56.21132 | -23.65065 | 39084 ft | 478 kts | 283° |
| 2026-05-08 00:01 | 56.21398 | -23.70988 | 38898 ft | 473 kts | 273° |
| 2026-05-08 00:01 | 56.21166 | -23.76874 | 38593 ft | 470 kts | 265° |
| 2026-05-08 00:02 | 56.20330 | -23.82596 | 37861 ft | 478 kts | 252° |
| 2026-05-08 00:02 | 56.18792 | -23.87976 | 37416 ft | 488 kts | 243° |
| 2026-05-08 00:02 | 56.17166 | -23.93326 | 37238 ft | 486 kts | 251° |
| 2026-05-08 00:02 | 56.14205 | -24.13171 | 37265 ft | 483 kts | 259° |
| 2026-05-08 00:03 | 56.02509 | -24.80855 | 37280 ft | 485 kts | 256° |
| 2026-05-08 00:03 | 55.89809 | -25.49630 | 37301 ft | 485 kts | 256° |
| 2026-05-08 00:04 | 55.77017 | -26.16455 | 37316 ft | 486 kts | 256° |
| 2026-05-08 00:04 | 55.63908 | -26.82610 | 37325 ft | 485 kts | 256° |
| 2026-05-08 00:05 | 55.50390 | -27.48606 | 37340 ft | 486 kts | 256° |
| 2026-05-08 00:05 | 55.36131 | -28.15949 | 37357 ft | 486 kts | 256° |
| 2026-05-08 00:06 | 55.21633 | -28.82200 | 37364 ft | 485 kts | 256° |
| 2026-05-08 00:06 | 55.06655 | -29.48540 | 37371 ft | 485 kts | 256° |
| 2026-05-08 00:07 | 54.91690 | -30.12790 | 37385 ft | 483 kts | 255° |
| 2026-05-08 00:07 | 54.77006 | -30.74020 | 37380 ft | 476 kts | 255° |
| 2026-05-08 00:08 | 54.62189 | -31.34113 | 37398 ft | 473 kts | 255° |
| 2026-05-08 00:08 | 54.47350 | -31.92704 | 37409 ft | 470 kts | 255° |
| 2026-05-08 00:09 | 54.31533 | -32.53511 | 37411 ft | 467 kts | 254° |
| 2026-05-08 00:09 | 54.15565 | -33.13273 | 37414 ft | 461 kts | 254° |
| 2026-05-08 00:10 | 53.99350 | -33.72421 | 37423 ft | 459 kts | 254° |
| 2026-05-08 00:10 | 53.83095 | -34.30234 | 37421 ft | 460 kts | 253° |
| 2026-05-08 00:11 | 53.66461 | -34.87943 | 37399 ft | 457 kts | 253° |
| 2026-05-08 00:11 | 53.49677 | -35.44771 | 37415 ft | 452 kts | 252° |
| 2026-05-08 00:12 | 53.32883 | -36.00315 | 37410 ft | 449 kts | 252° |
| 2026-05-08 00:12 | 53.15901 | -36.55200 | 37399 ft | 448 kts | 251° |
| 2026-05-08 00:13 | 52.98705 | -37.09542 | 37393 ft | 446 kts | 250° |
| 2026-05-08 00:13 | 52.81134 | -37.63836 | 37387 ft | 445 kts | 249° |
| 2026-05-08 00:14 | 52.64344 | -38.14614 | 37390 ft | 444 kts | 249° |
| 2026-05-08 00:14 | 52.47072 | -38.65788 | 37381 ft | 443 kts | 248° |
| 2026-05-08 00:15 | 52.29401 | -39.17085 | 37364 ft | 441 kts | 246° |
| 2026-05-08 00:15 | 52.11407 | -39.68217 | 37358 ft | 441 kts | 245° |
| 2026-05-08 00:16 | 51.96914 | -40.20482 | 37348 ft | 431 kts | 260° |
| 2026-05-08 00:16 | 51.88410 | -40.75623 | 37328 ft | 431 kts | 259° |
| 2026-05-08 00:17 | 51.79625 | -41.30582 | 37321 ft | 431 kts | 258° |
| 2026-05-08 00:17 | 51.70417 | -41.86323 | 37293 ft | 433 kts | 257° |
| 2026-05-08 00:18 | 51.60903 | -42.42102 | 37297 ft | 434 kts | 256° |
| 2026-05-08 00:18 | 51.51054 | -42.98004 | 37305 ft | 434 kts | 255° |
| 2026-05-08 00:19 | 51.41526 | -43.50526 | 37289 ft | 432 kts | 254° |
| 2026-05-08 00:19 | 51.31367 | -44.04889 | 37287 ft | 433 kts | 253° |
| 2026-05-08 00:20 | 51.20796 | -44.59863 | 37287 ft | 432 kts | 252° |
| 2026-05-08 00:20 | 51.10179 | -45.13504 | 37282 ft | 433 kts | 251° |
| 2026-05-08 00:21 | 50.99669 | -45.65216 | 37283 ft | 431 kts | 251° |
| 2026-05-08 00:21 | 50.88590 | -46.18296 | 37272 ft | 431 kts | 250° |
| 2026-05-08 00:22 | 50.77159 | -46.71648 | 37279 ft | 429 kts | 250° |
| 2026-05-08 00:22 | 50.65722 | -47.23669 | 37252 ft | 426 kts | 249° |
| 2026-05-08 00:23 | 50.53535 | -47.77711 | 37261 ft | 426 kts | 249° |
| 2026-05-08 00:23 | 50.43812 | -48.19854 | 37225 ft | 427 kts | 249° |
| 2026-05-08 00:24 | 50.31003 | -48.74146 | 37192 ft | 429 kts | 248° |
| 2026-05-08 00:24 | 50.17999 | -49.27909 | 37159 ft | 431 kts | 249° |
| 2026-05-08 00:25 | 50.04865 | -49.80879 | 37140 ft | 431 kts | 248° |
| 2026-05-08 00:25 | 49.91723 | -50.34633 | 37115 ft | 428 kts | 249° |
| 2026-05-08 00:26 | 49.78609 | -50.88014 | 37118 ft | 427 kts | 248° |
| 2026-05-08 00:26 | 49.65634 | -51.39593 | 37070 ft | 420 kts | 248° |
| 2026-05-08 00:27 | 49.52628 | -51.90094 | 37080 ft | 416 kts | 248° |
| 2026-05-08 00:27 | 49.40169 | -52.39832 | 37015 ft | 413 kts | 249° |
| 2026-05-08 00:28 | 49.28373 | -52.86417 | 37982 ft | 401 kts | 249° |
| 2026-05-08 00:28 | 49.16215 | -53.33425 | 37946 ft | 397 kts | 248° |
| 2026-05-08 00:29 | 49.04162 | -53.79126 | 37912 ft | 389 kts | 248° |
| 2026-05-08 00:29 | 48.92182 | -54.23633 | 37884 ft | 384 kts | 248° |
| 2026-05-08 00:30 | 48.80416 | -54.66578 | 37862 ft | 382 kts | 246° |
| 2026-05-08 00:30 | 48.68288 | -55.09997 | 37829 ft | 377 kts | 246° |
| 2026-05-08 00:31 | 48.56781 | -55.50507 | 37845 ft | 374 kts | 245° |
| 2026-05-08 00:31 | 48.44953 | -55.91382 | 37790 ft | 377 kts | 245° |
| 2026-05-08 00:32 | 48.32656 | -56.33222 | 37786 ft | 376 kts | 245° |
| 2026-05-08 00:32 | 48.19757 | -56.76347 | 37787 ft | 378 kts | 244° |
| 2026-05-08 00:33 | 48.07018 | -57.18209 | 37819 ft | 370 kts | 244° |
| 2026-05-08 00:33 | 47.94166 | -57.59741 | 37805 ft | 374 kts | 244° |
| 2026-05-08 00:34 | 47.81317 | -58.00601 | 37781 ft | 366 kts | 244° |
| 2026-05-08 00:34 | 47.68260 | -58.41442 | 37760 ft | 367 kts | 244° |
| 2026-05-08 00:35 | 47.55363 | -58.81157 | 37742 ft | 361 kts | 243° |
| 2026-05-08 00:35 | 47.42404 | -59.20443 | 37720 ft | 355 kts | 243° |
| 2026-05-08 00:36 | 47.31612 | -59.52713 | 37704 ft | 349 kts | 243° |
| 2026-05-08 00:36 | 47.16469 | -59.97328 | 37699 ft | 350 kts | 243° |
| 2026-05-08 00:37 | 47.05939 | -60.27903 | 37697 ft | 350 kts | 243° |
| 2026-05-08 00:38 | 46.87006 | -60.82006 | 37694 ft | 352 kts | 242° |
| 2026-05-08 00:38 | 46.74825 | -61.16235 | 37673 ft | 347 kts | 242° |
| 2026-05-08 00:39 | 46.61804 | -61.52346 | 37683 ft | 350 kts | 241° |
| 2026-05-08 00:39 | 46.48592 | -61.88491 | 37702 ft | 343 kts | 241° |
| 2026-05-08 00:40 | 46.35209 | -62.24620 | 37703 ft | 346 kts | 240° |
| 2026-05-08 00:40 | 46.21796 | -62.60347 | 37699 ft | 342 kts | 240° |
| 2026-05-08 00:41 | 46.08132 | -62.96265 | 37700 ft | 345 kts | 239° |
| 2026-05-08 00:41 | 45.94677 | -63.31178 | 37694 ft | 342 kts | 239° |
| 2026-05-08 00:42 | 45.81042 | -63.66116 | 37695 ft | 347 kts | 238° |
| 2026-05-08 00:42 | 45.67879 | -63.99424 | 37693 ft | 347 kts | 238° |
| 2026-05-08 00:43 | 45.54403 | -64.33093 | 37694 ft | 352 kts | 238° |
| 2026-05-08 00:43 | 45.40727 | -64.66885 | 37714 ft | 349 kts | 237° |
| 2026-05-08 00:44 | 45.26552 | -65.01461 | 37717 ft | 358 kts | 237° |
| 2026-05-08 00:44 | 45.11608 | -65.37466 | 37722 ft | 359 kts | 237° |
| 2026-05-08 00:45 | 44.96989 | -65.72243 | 37743 ft | 367 kts | 237° |